Time;durP1;ratioP1;P1;durP2;ratioP2;P2;SDS_P1;SDS_P2;PMS_P1;PMS_P2;Temp;Humidity;BMP_temperature;BMP_pressure;BME280_temperature;BME280_humidity;BME280_pressure;Samples;Min_cycle;Max_cycle;Signal;HPM_P1;HPM_P2
2022/09/08 00:00:18;;;;;;;4.90;0.80;;;;;;;19.87;66.76;100933.84;5055998;27;97216;-29
2022/09/08 00:02:44;;;;;;;4.38;1.10;;;;;;;19.86;67.61;100939.50;5056376;27;96737;-29
2022/09/08 00:05:11;;;;;;;3.55;1.20;;;;;;;;;;5037854;27;96978;-32
2022/09/08 00:07:38;;;;;;;4.57;1.15;;;;;;;19.82;67.34;100938.09;5055992;27;97790;-30
2022/09/08 00:10:04;;;;;;;6.05;1.95;;;;;;;19.80;67.28;100938.22;5055878;27;97877;-30
2022/09/08 00:12:29;;;;;;;4.57;0.82;;;;;;;19.82;67.18;100933.44;5037219;27;99431;-30
2022/09/08 00:14:56;;;;;;;4.35;1.23;;;;;;;19.84;67.69;100936.06;5055779;27;96844;-30
2022/09/08 00:17:22;;;;;;;2.13;0.98;;;;;;;19.83;67.56;100939.81;5037273;27;99247;-30
2022/09/08 00:19:48;;;;;;;6.60;1.33;;;;;;;19.80;67.51;100921.72;5036910;27;101261;-29
2022/09/08 00:22:13;;;;;;;2.03;0.85;;;;;;;19.79;68.19;100920.00;5054659;27;106950;-29
2022/09/08 00:24:38;;;;;;;1.63;1.05;;;;;;;19.79;67.74;100911.75;5055806;27;96816;-30
2022/09/08 00:27:04;;;;;;;1.85;0.90;;;;;;;19.80;68.26;100912.63;5055231;27;109142;-29
2022/09/08 00:29:29;;;;;;;2.72;1.13;;;;;;;19.78;68.17;100912.75;5055275;27;99464;-29
2022/09/08 00:31:54;;;;;;;5.13;1.10;;;;;;;19.78;68.09;100911.91;5055569;27;100289;-29
2022/09/08 00:34:19;;;;;;;3.85;1.30;;;;;;;19.78;68.37;100912.75;5020414;27;96988;-30
2022/09/08 00:36:45;;;;;;;3.88;1.50;;;;;;;19.75;68.69;100899.34;5055560;27;97930;-29
2022/09/08 00:39:11;;;;;;;4.10;1.30;;;;;;;19.78;68.45;100898.16;5055866;27;97773;-30
2022/09/08 00:41:36;;;;;;;1.70;0.82;;;;;;;19.76;68.19;100891.94;5055129;27;109468;-28
2022/09/08 00:44:35;;;;;;;3.90;0.95;;;;;;;19.76;69.57;100894.69;5055208;27;106105;-29
2022/09/08 00:47:01;;;;;;;2.67;1.02;;;;;;;19.72;69.00;100891.41;5054891;27;97816;-28
2022/09/08 00:49:28;;;;;;;3.33;1.20;;;;;;;19.74;68.28;100897.63;5036903;27;100874;-30
2022/09/08 00:51:57;;;;;;;3.67;1.52;;;;;;;19.75;68.92;100890.22;5037135;27;97237;-29
2022/09/08 00:54:25;;;;;;;4.57;1.30;;;;;;;19.72;68.68;100886.78;5036389;27;96856;-29
2022/09/08 00:56:53;;;;;;;3.70;1.25;;;;;;;19.74;68.90;100883.88;5036713;27;101728;-29
2022/09/08 00:59:20;;;;;;;4.97;1.55;;;;;;;19.74;68.71;100892.13;5036710;27;101375;-31
2022/09/08 01:01:46;;;;;;;2.10;1.33;;;;;;;19.72;68.55;100892.25;5055261;27;96676;-29
2022/09/08 01:04:12;;;;;;;5.07;1.75;;;;;;;19.73;68.50;100890.38;5037336;27;96871;-29
2022/09/08 01:12:45;;;;;;;2.75;1.52;;;;;;;19.67;69.21;100879.97;5055147;27;96619;-29
2022/09/08 01:15:18;;;;;;;4.33;1.90;;;;;;;19.63;69.47;100875.78;5036586;27;96884;-31
2022/09/08 01:17:46;;;;;;;5.63;1.73;;;;;;;19.63;69.16;100870.31;5036463;27;101076;-31
2022/09/08 01:20:11;;;;;;;8.52;2.33;;;;;;;19.64;70.14;100874.75;5036203;27;101284;-29
2022/09/08 01:22:48;;;;;;;6.82;2.00;;;;;;;19.61;69.42;100873.19;5055224;27;96485;-30
2022/09/08 01:25:35;;;;;;;5.95;1.83;;;;;;;19.66;70.12;100872.72;5036893;27;96783;-30
2022/09/08 01:28:16;;;;;;;4.40;1.45;;;;;;;19.63;70.53;100865.66;5054947;27;97526;-29
2022/09/08 01:30:42;;;;;;;3.00;1.25;;;;;;;19.62;69.36;100865.84;5036700;27;100901;-29
2022/09/08 01:33:09;;;;;;;5.25;1.30;;;;;;;19.66;69.50;100873.63;5036738;27;96657;-30
2022/09/08 01:35:39;;;;;;;2.67;1.38;;;;;;;19.62;69.31;100866.69;5036485;27;96873;-30
2022/09/08 01:38:26;;;;;;;3.50;1.48;;;;;;;19.65;70.00;100871.88;5035380;27;100864;-29
2022/09/08 01:40:51;;;;;;;3.58;1.33;;;;;;;19.65;70.03;100868.28;5054600;27;97472;-30
2022/09/08 01:43:17;;;;;;;3.53;1.38;;;;;;;19.62;69.42;100871.34;5054648;27;96543;-29
2022/09/08 01:45:42;;;;;;;5.40;1.65;;;;;;;19.63;69.23;100871.16;5055028;27;96888;-29
2022/09/08 01:48:08;;;;;;;5.70;1.67;;;;;;;19.66;69.03;100869.97;5054678;27;97959;-29
2022/09/08 01:50:33;;;;;;;5.55;1.98;;;;;;;19.55;69.22;100865.56;5054266;27;97303;-29
2022/09/08 01:52:59;;;;;;;3.70;1.25;;;;;;;19.52;68.88;100865.84;5054913;27;96509;-29
2022/09/08 01:55:24;;;;;;;5.57;1.02;;;;;;;19.50;68.76;100871.53;5036676;27;97734;-29
2022/09/08 01:57:50;;;;;;;6.50;0.85;;;;;;;19.49;68.21;100869.78;5054437;27;97838;-29
2022/09/08 02:00:15;;;;;;;4.40;0.65;;;;;;;19.43;67.88;100870.41;5054530;27;97157;-30
2022/09/08 02:02:41;;;;;;;1.98;0.73;;;;;;;19.40;68.29;100870.72;5054198;27;96521;-29
2022/09/08 02:05:07;;;;;;;1.25;0.65;;;;;;;19.40;67.63;100859.72;5054418;27;96875;-29
2022/09/08 02:07:34;;;;;;;5.45;0.88;;;;;;;19.38;67.62;100860.88;5055989;27;97406;-29
2022/09/08 02:10:00;;;;;;;2.25;0.65;;;;;;;19.35;67.76;100859.28;5039512;27;100950;-29
2022/09/08 02:12:25;;;;;;;1.80;0.65;;;;;;;19.36;67.37;100851.94;5057883;27;96591;-29
2022/09/08 02:14:51;;;;;;;2.85;0.65;;;;;;;19.33;67.13;100857.72;5057656;27;96891;-29
2022/09/08 02:17:34;;;;;;;2.25;0.77;;;;;;;19.33;66.83;100855.84;5057457;27;99244;-29
2022/09/08 02:20:00;;;;;;;1.55;0.40;;;;;;;19.34;67.05;100854.81;5057771;27;97389;-29
2022/09/08 02:22:26;;;;;;;0.95;0.63;;;;;;;19.38;67.18;100858.13;5057946;27;96583;-29
2022/09/08 02:24:51;;;;;;;3.63;0.80;;;;;;;19.39;68.21;100851.63;5057815;27;96832;-29
2022/09/08 02:27:17;;;;;;;2.92;0.57;;;;;;;19.31;68.27;100849.63;5057011;27;97293;-29
2022/09/08 02:29:42;;;;;;;1.73;0.70;;;;;;;19.29;68.48;100841.53;5057623;27;97367;-28
2022/09/08 02:32:07;;;;;;;2.47;0.80;;;;;;;19.33;68.35;100850.34;5057797;27;96626;-31
2022/09/08 02:34:33;;;;;;;1.60;0.80;;;;;;;19.26;68.04;100839.09;5057478;27;96846;-29
2022/09/08 02:36:58;;;;;;;2.75;0.55;;;;;;;19.28;69.41;100847.19;5038975;27;99132;-29
2022/09/08 02:39:23;;;;;;;1.65;0.70;;;;;;;19.25;69.48;100848.34;5057030;27;108984;-30
2022/09/08 02:41:49;;;;;;;2.22;0.57;;;;;;;19.16;69.63;100853.88;5057395;27;96664;-30
2022/09/08 02:44:14;;;;;;;2.72;0.80;;;;;;;19.15;69.89;100843.91;5057890;27;96834;-31
2022/09/08 02:46:41;;;;;;;3.05;0.73;;;;;;;19.19;69.56;100850.84;5057081;27;98008;-30
2022/09/08 02:49:08;;;;;;;1.42;0.63;;;;;;;19.13;70.21;100844.06;5038609;27;100924;-29
2022/09/08 02:51:33;;;;;;;2.40;0.88;;;;;;;19.09;70.78;100840.75;5057169;27;96572;-29
2022/09/08 02:53:58;;;;;;;0.95;0.60;;;;;;;19.13;71.42;100837.72;5057397;27;96825;-29
2022/09/08 02:56:24;;;;;;;2.85;0.68;;;;;;;19.06;71.16;100834.69;5057089;27;98023;-29
2022/09/08 02:58:50;;;;;;;1.05;0.40;;;;;;;19.03;71.52;100826.75;5056730;27;99174;-29
2022/09/08 03:01:16;;;;;;;1.73;0.60;;;;;;;19.03;72.05;100827.63;5057068;27;96476;-29
2022/09/08 03:03:41;;;;;;;1.00;0.80;;;;;;;18.98;72.44;100820.88;5057367;27;96832;-29
2022/09/08 03:06:07;;;;;;;1.88;0.70;;;;;;;18.95;71.65;100818.41;5057049;27;97394;-29
2022/09/08 03:08:33;;;;;;;2.67;1.02;;;;;;;18.94;71.36;100824.91;5057180;27;97866;-29
2022/09/08 03:11:00;;;;;;;5.22;0.90;;;;;;;18.90;72.09;100827.06;5038691;27;96642;-30
2022/09/08 03:13:25;;;;;;;3.10;0.88;;;;;;;18.91;72.04;100825.22;5038000;27;96812;-29
2022/09/08 03:15:51;;;;;;;2.17;0.65;;;;;;;18.85;72.45;100824.81;5056313;27;97917;-29
2022/09/08 03:18:16;;;;;;;0.38;0.38;;;;;;;18.87;71.98;100835.63;5056235;27;99367;-29
2022/09/08 03:20:43;;;;;;;1.60;0.73;;;;;;;18.86;71.87;100831.16;5056775;27;96625;-29
2022/09/08 03:23:15;;;;;;;1.50;0.75;;;;;;;18.82;72.81;100821.47;5038520;27;96829;-30
2022/09/08 03:25:41;;;;;;;2.55;0.70;;;;;;;18.79;71.98;100822.66;5038240;27;100976;-29
2022/09/08 03:28:07;;;;;;;1.60;0.80;;;;;;;18.77;72.96;100827.41;5056301;27;99167;-29
2022/09/08 03:30:32;;;;;;;1.13;0.60;;;;;;;18.79;72.74;100830.03;5056783;27;96660;-29
2022/09/08 03:32:58;;;;;;;6.70;0.88;;;;;;;18.78;72.75;100831.00;5057030;27;96831;-29
2022/09/08 03:35:23;;;;;;;1.27;0.75;;;;;;;18.71;73.66;100829.84;5056223;27;99812;-29
2022/09/08 03:37:49;;;;;;;2.28;0.60;;;;;;;18.64;73.26;100833.19;5056597;27;97949;-30
2022/09/08 03:40:16;;;;;;;2.60;0.77;;;;;;;18.68;73.12;100837.34;5056077;27;96596;-29
2022/09/08 03:42:43;;;;;;;1.15;0.60;;;;;;;18.64;73.23;100835.94;5038149;27;96937;-29
2022/09/08 03:45:12;;;;;;;1.02;0.63;;;;;;;18.65;73.80;100840.41;5037669;27;100996;-29
2022/09/08 03:47:37;;;;;;;2.45;0.93;;;;;;;18.63;73.48;100827.84;5056129;27;97829;-29
2022/09/08 03:50:03;;;;;;;1.08;0.55;;;;;;;18.59;73.37;100826.41;5056416;27;97131;-29
2022/09/08 03:52:29;;;;;;;1.42;0.65;;;;;;;18.52;73.67;100817.91;5056515;27;97013;-29
2022/09/08 03:54:54;;;;;;;1.17;0.85;;;;;;;18.51;74.29;100831.75;5056128;27;97890;-29
2022/09/08 03:57:25;;;;;;;2.97;0.88;;;;;;;18.46;74.38;100834.94;5037900;27;101218;-30
2022/09/08 03:59:51;;;;;;;2.83;0.80;;;;;;;18.48;75.04;100840.31;5037911;27;96534;-29
2022/09/08 04:02:18;;;;;;;1.65;0.73;;;;;;;18.45;74.29;100846.94;5037893;27;96844;-29
2022/09/08 04:04:47;;;;;;;2.15;0.95;;;;;;;18.41;75.37;100843.59;5037049;27;101074;-29
2022/09/08 04:07:13;;;;;;;2.33;0.90;;;;;;;18.44;74.17;100836.97;5037545;27;98913;-29
2022/09/08 04:09:38;;;;;;;2.78;0.88;;;;;;;18.50;74.58;100830.91;5056093;27;98023;-29
2022/09/08 04:12:05;;;;;;;4.15;1.08;;;;;;;18.48;74.49;100824.69;5055941;27;96964;-29
2022/09/08 04:14:31;;;;;;;3.35;0.70;;;;;;;18.53;74.71;100825.13;5036830;27;101472;-29
2022/09/08 04:16:57;;;;;;;1.30;0.85;;;;;;;18.52;74.45;100822.50;5055913;27;97735;-30
2022/09/08 04:19:22;;;;;;;4.10;1.08;;;;;;;18.46;73.74;100815.75;5055817;27;96709;-29
2022/09/08 04:21:48;;;;;;;3.75;1.23;;;;;;;18.43;74.26;100813.31;5056124;27;96739;-29
2022/09/08 04:24:14;;;;;;;2.15;1.05;;;;;;;18.42;74.79;100804.22;5037183;27;101350;-29
2022/09/08 04:26:39;;;;;;;1.73;0.90;;;;;;;18.45;75.04;100811.28;5055224;27;99723;-33
2022/09/08 04:29:05;;;;;;;3.42;1.40;;;;;;;18.44;75.26;100813.13;5054858;27;96674;-29
2022/09/08 04:31:30;;;;;;;0.98;0.75;;;;;;;18.36;74.14;100809.41;5037247;27;96879;-31
2022/09/08 04:33:56;;;;;;;2.50;1.10;;;;;;;18.41;74.23;100807.09;5055304;27;99747;-29
2022/09/08 04:36:22;;;;;;;4.25;1.02;;;;;;;18.38;75.32;100808.25;5055544;27;97865;-31
2022/09/08 04:38:48;;;;;;;2.90;0.93;;;;;;;18.36;75.27;100818.50;5037300;27;96522;-29
2022/09/08 04:41:16;;;;;;;4.03;0.80;;;;;;;18.32;75.83;100813.44;5055780;27;96886;-30
2022/09/08 04:43:43;;;;;;;4.80;1.15;;;;;;;18.31;75.65;100817.22;5036722;27;101501;-29
2022/09/08 04:46:11;;;;;;;2.88;1.15;;;;;;;18.30;75.69;100819.06;5037349;27;100557;-29
2022/09/08 04:48:38;;;;;;;4.57;1.40;;;;;;;18.30;75.57;100823.69;5037237;27;96716;-29
2022/09/08 04:51:04;;;;;;;1.45;0.82;;;;;;;18.30;76.66;100820.94;5037207;27;96845;-29
2022/09/08 04:53:31;;;;;;;1.92;1.13;;;;;;;18.21;75.98;100818.09;5036374;27;100943;-29
2022/09/08 04:55:57;;;;;;;4.22;0.93;;;;;;;18.22;75.31;100814.31;5036538;27;98979;-29
2022/09/08 04:58:23;;;;;;;3.50;1.60;;;;;;;18.18;75.43;100820.25;5055158;27;96623;-29
2022/09/08 05:00:48;;;;;;;1.98;1.00;;;;;;;18.25;75.08;100818.66;5037067;27;96887;-29
2022/09/08 05:03:14;;;;;;;2.33;1.02;;;;;;;18.25;75.44;100813.16;5055367;27;97304;-29
2022/09/08 05:05:39;;;;;;;5.82;1.15;;;;;;;18.25;75.62;100813.16;5055226;27;97281;-29
2022/09/08 05:08:05;;;;;;;3.75;1.25;;;;;;;18.20;75.06;100819.06;5055399;27;96489;-29
2022/09/08 05:10:32;;;;;;;3.75;1.45;;;;;;;18.15;75.99;100826.88;5055079;27;96806;-29
2022/09/08 05:12:58;;;;;;;3.35;1.52;;;;;;;18.15;75.90;100818.66;5035891;27;101397;-28
2022/09/08 05:15:23;;;;;;;6.60;2.30;;;;;;;18.13;76.08;100828.88;5036483;27;101423;-29
2022/09/08 05:17:49;;;;;;;3.55;1.48;;;;;;;18.15;75.90;100829.63;5054462;27;100909;-32
2022/09/08 05:20:14;;;;;;;4.72;1.80;;;;;;;18.15;76.17;100818.66;5054753;27;96840;-29
2022/09/08 05:22:40;;;;;;;4.63;1.83;;;;;;;18.14;76.44;100825.16;5054740;27;99349;-29
2022/09/08 05:25:06;;;;;;;3.85;2.03;;;;;;;18.15;76.55;100829.63;5036198;27;100684;-29
2022/09/08 05:27:32;;;;;;;3.92;1.95;;;;;;;18.10;76.20;100822.84;5036593;27;96657;-29
2022/09/08 05:29:57;;;;;;;2.42;1.70;;;;;;;18.08;77.21;100816.63;5054999;27;96596;-29
2022/09/08 05:32:22;;;;;;;4.05;1.75;;;;;;;18.11;76.35;100825.44;5036106;27;98967;-29
2022/09/08 05:34:48;;;;;;;3.42;2.00;;;;;;;18.09;77.43;100818.34;5036618;27;100678;-29
2022/09/08 05:37:13;;;;;;;3.92;1.88;;;;;;;18.11;77.26;100822.69;5054574;27;97042;-30
2022/09/08 05:39:38;;;;;;;4.28;1.48;;;;;;;18.11;77.37;100819.94;5053149;27;96818;-29
2022/09/08 05:42:09;;;;;;;3.00;1.60;;;;;;;18.07;76.97;100810.28;5054792;27;107899;-29
2022/09/08 05:44:35;;;;;;;2.35;1.27;;;;;;;18.12;76.85;100815.34;5057571;27;114735;-31
2022/09/08 05:47:00;;;;;;;2.58;1.05;;;;;;;18.06;76.86;100802.22;5058151;27;96675;-29
2022/09/08 05:49:25;;;;;;;1.77;1.00;;;;;;;18.07;76.80;100815.78;5058343;27;96794;-29
2022/09/08 05:51:52;;;;;;;2.40;0.93;;;;;;;18.01;77.62;100817.19;5057640;27;109783;-29
2022/09/08 05:54:19;;;;;;;1.83;1.10;;;;;;;17.93;77.69;100819.81;5038707;27;100901;-29
2022/09/08 05:56:45;;;;;;;2.42;1.15;;;;;;;17.93;77.01;100822.53;5038131;27;97080;-29
2022/09/08 05:59:11;;;;;;;2.05;1.05;;;;;;;17.94;76.84;100813.31;5057825;27;96741;-30
2022/09/08 06:01:36;;;;;;;3.38;1.10;;;;;;;17.95;77.15;100822.41;5038714;27;100993;-30
2022/09/08 06:04:02;;;;;;;1.73;1.20;;;;;;;17.90;76.71;100821.94;5038701;27;117305;-30
2022/09/08 06:06:28;;;;;;;3.63;1.48;;;;;;;17.92;77.52;100819.94;5057487;27;96594;-30
2022/09/08 06:08:54;;;;;;;2.33;1.23;;;;;;;17.95;77.60;100823.28;5039575;27;97024;-29
2022/09/08 06:11:20;;;;;;;3.03;1.55;;;;;;;17.87;77.23;100809.41;5039260;27;101303;-31
2022/09/08 06:13:45;;;;;;;3.58;1.30;;;;;;;17.87;77.52;100816.75;5057340;27;97043;-30
2022/09/08 06:16:27;;;;;;;2.70;1.38;;;;;;;17.91;77.43;100813.59;5058210;27;96604;-29
2022/09/08 06:18:53;;;;;;;2.17;1.15;;;;;;;17.85;77.91;100816.03;5038934;27;96874;-29
2022/09/08 06:21:37;;;;;;;1.98;1.27;;;;;;;17.88;78.38;100807.56;5057363;27;97944;-29
2022/09/08 06:24:05;;;;;;;3.35;1.77;;;;;;;17.84;77.79;100812.44;5057865;27;99140;-29
2022/09/08 06:27:01;;;;;;;3.53;1.83;;;;;;;17.83;78.22;100824.41;5039394;27;96685;-29
2022/09/08 06:30:14;;;;;;;7.40;1.55;;;;;;;17.70;78.96;100826.50;5039614;27;96788;-29
2022/09/08 06:32:43;;;;;;;1.77;1.15;;;;;;;17.59;79.81;100838.44;5038458;27;99558;-29
2022/09/08 06:35:21;;;;;;;5.97;1.90;;;;;;;17.55;79.21;100829.66;5057231;27;100028;-30
2022/09/08 06:38:01;;;;;;;4.22;1.23;;;;;;;17.53;80.40;100837.13;5039267;27;96908;-29
2022/09/08 06:40:35;;;;;;;4.28;1.55;;;;;;;17.53;80.35;100837.13;5039306;27;96712;-29
2022/09/08 06:43:07;;;;;;;3.40;1.48;;;;;;;17.47;80.59;100837.72;5038592;27;100936;-29
2022/09/08 06:45:44;;;;;;;4.75;1.75;;;;;;;17.46;80.58;100833.22;5054649;27;97306;-31
2022/09/08 06:48:15;;;;;;;5.35;1.60;;;;;;;17.54;80.06;100838.00;5056335;27;97228;-31
2022/09/08 06:50:59;;;;;;;6.50;2.03;;;;;;;17.54;80.19;100829.78;5057130;27;96920;-29
2022/09/08 06:53:49;;;;;;;4.88;1.80;;;;;;;17.54;79.98;100827.03;5055538;27;99339;-29
2022/09/08 06:56:31;;;;;;;3.15;1.80;;;;;;;17.60;79.38;100821.03;5038015;27;100873;-29
2022/09/08 06:59:01;;;;;;;2.70;1.50;;;;;;;17.53;80.03;100820.72;5056072;27;96770;-30
2022/09/08 07:01:54;;;;;;;3.50;1.60;;;;;;;17.58;80.15;100825.75;5038836;27;96921;-29
2022/09/08 07:04:51;;;;;;;3.38;1.55;;;;;;;17.64;80.60;100830.69;5038655;27;100908;-29
2022/09/08 07:07:26;;;;;;;6.32;1.92;;;;;;;17.59;79.66;100827.47;5055741;27;99452;-29
2022/09/08 07:10:05;;;;;;;4.30;1.58;;;;;;;17.57;81.45;100821.31;5057026;27;96597;-29
2022/09/08 07:12:49;;;;;;;3.60;1.83;;;;;;;17.60;79.78;100826.50;5038552;27;96667;-30
2022/09/08 07:15:39;;;;;;;2.53;1.75;;;;;;;17.60;80.45;100823.75;5038359;27;101220;-31
2022/09/08 07:18:19;;;;;;;4.65;1.92;;;;;;;17.56;81.69;100825.03;5038708;27;101093;-30
2022/09/08 07:20:45;;;;;;;5.05;2.13;;;;;;;17.50;80.93;100820.13;5038529;27;96886;-29
2022/09/08 07:23:21;;;;;;;8.60;3.15;;;;;;;17.56;80.91;100827.78;5056855;27;96856;-29
2022/09/08 07:26:02;;;;;;;8.75;2.78;;;;;;;17.53;80.82;100815.22;5056233;27;97863;-29
2022/09/08 07:28:49;;;;;;;5.32;3.13;;;;;;;17.59;81.07;100819.25;5038317;27;101068;-29
2022/09/08 07:31:24;;;;;;;6.38;3.38;;;;;;;17.63;79.92;100823.47;5038238;27;96704;-30
2022/09/08 07:34:06;;;;;;;6.75;3.10;;;;;;;17.60;80.15;100830.09;5038384;27;96711;-29
2022/09/08 07:36:47;;;;;;;6.32;2.95;;;;;;;17.60;80.33;100826.50;5037964;27;101365;-29
2022/09/08 07:39:30;;;;;;;4.93;2.58;;;;;;;17.61;80.34;100820.88;5056278;27;99348;-29
2022/09/08 07:41:59;;;;;;;4.82;2.35;;;;;;;17.60;80.33;100826.50;5038201;27;96720;-29
2022/09/08 07:44:25;;;;;;;6.53;2.30;;;;;;;17.66;79.85;100828.66;5038642;27;96853;-29
2022/09/08 07:47:27;;;;;;;2.97;1.67;;;;;;;17.67;80.98;100822.19;5037645;27;101001;-29
2022/09/08 07:50:17;;;;;;;3.35;1.58;;;;;;;17.69;79.67;100827.53;5056186;27;98770;-29
2022/09/08 07:52:49;;;;;;;3.25;1.85;;;;;;;17.71;80.22;100826.38;5056169;27;96575;-29
2022/09/08 07:55:54;;;;;;;5.20;2.42;;;;;;;17.79;79.16;100837.50;5056586;27;96752;-30
2022/09/08 07:58:40;;;;;;;3.90;2.20;;;;;;;17.75;79.31;100825.06;4973443;28;98299;-29
2022/09/08 08:01:15;;;;;;;3.28;1.75;;;;;;;17.84;79.67;100826.13;4957095;28;101317;-29
2022/09/08 08:04:18;;;;;;;3.53;2.15;;;;;;;17.91;78.83;100835.53;5010827;27;96878;-29
2022/09/08 08:06:52;;;;;;;6.18;2.35;;;;;;;17.98;79.06;100822.97;5056131;27;96910;-29
2022/09/08 08:09:51;;;;;;;8.30;2.50;;;;;;;18.07;78.36;100831.34;5037365;27;100917;-30
2022/09/08 08:12:26;;;;;;;5.47;2.35;;;;;;;18.08;78.48;100839.44;5056011;27;99384;-29
2022/09/08 08:14:58;;;;;;;5.13;2.80;;;;;;;18.06;78.14;100835.09;5037119;27;96756;-31
2022/09/08 08:17:23;;;;;;;3.55;2.28;;;;;;;18.09;77.50;100838.44;5056011;27;96816;-29
2022/09/08 08:20:10;;;;;;;4.63;2.90;;;;;;;18.18;78.05;100845.78;5055171;27;97449;-29
2022/09/08 08:22:53;;;;;;;7.97;2.63;;;;;;;18.18;77.49;100836.69;5055971;27;97444;-31
2022/09/08 08:25:29;;;;;;;5.68;2.35;;;;;;;18.05;78.28;100842.47;5056101;27;96779;-30
2022/09/08 08:28:04;;;;;;;5.40;2.70;;;;;;;18.06;77.51;100852.41;5056121;27;97021;-29
2022/09/08 08:30:32;;;;;;;3.38;2.33;;;;;;;18.09;77.84;100852.16;5055731;27;103064;-29
2022/09/08 08:35:56;;;;;;;5.30;1.98;;;;;;;18.02;76.91;100853.72;5056342;27;96519;-29
2022/09/08 08:38:30;;;;;;;3.53;2.47;;;;;;;18.02;77.52;100862.81;5037890;27;96593;-29
2022/09/08 08:40:58;;;;;;;3.33;2.15;;;;;;;18.03;76.89;100870.00;5036916;27;101449;-30
2022/09/08 08:44:08;;;;;;;3.58;2.15;;;;;;;18.10;76.33;100861.22;5055127;27;99334;-29
2022/09/08 08:46:51;;;;;;;7.15;2.63;;;;;;;18.21;76.73;100870.19;5022747;27;96698;-29
2022/09/08 08:49:19;;;;;;;4.93;2.38;;;;;;;18.18;76.19;100873.19;5055336;27;96818;-30
2022/09/08 08:51:56;;;;;;;3.88;2.20;;;;;;;18.19;75.98;100869.47;5055139;27;98777;-29
2022/09/08 08:54:32;;;;;;;4.70;2.42;;;;;;;18.19;75.88;100863.13;5036731;27;100805;-29
2022/09/08 08:57:06;;;;;;;4.00;2.75;;;;;;;18.34;75.73;100871.78;5037308;27;96628;-29
2022/09/08 08:59:47;;;;;;;5.43;2.90;;;;;;;18.50;74.78;100866.56;5037203;27;96718;-29
2022/09/08 09:02:40;;;;;;;2.72;1.88;;;;;;;18.58;73.19;100861.19;5055055;27;99300;-30
2022/09/08 09:05:24;;;;;;;4.20;2.20;;;;;;;18.70;72.51;100867.41;5036996;27;100839;-29
2022/09/08 09:08:20;;;;;;;3.58;1.63;;;;;;;18.82;73.18;100860.75;5055365;27;96664;-29
2022/09/08 09:10:48;;;;;;;4.05;2.15;;;;;;;18.83;72.15;100864.38;5055582;27;96641;-30
2022/09/08 09:13:32;;;;;;;6.80;2.25;;;;;;;18.85;72.86;100862.34;5053683;27;98836;-29
2022/09/08 09:16:00;;;;;;;3.50;2.25;;;;;;;18.95;72.72;100871.44;5054463;27;99214;-28
2022/09/08 09:18:50;;;;;;;6.43;1.98;;;;;;;19.08;72.75;100866.47;5054876;27;96509;-29
2022/09/08 09:21:34;;;;;;;2.28;1.67;;;;;;;18.99;72.36;100870.09;5055237;27;96607;-29
2022/09/08 09:24:21;;;;;;;6.20;1.55;;;;;;;18.95;73.06;100860.47;5054967;27;97422;-29
2022/09/08 09:26:50;;;;;;;4.38;1.90;;;;;;;18.88;72.09;100870.31;5036121;27;101062;-30
2022/09/08 09:29:21;;;;;;;3.78;1.90;;;;;;;18.83;72.28;100861.63;5036785;27;96606;-29
2022/09/08 09:31:49;;;;;;;5.30;2.08;;;;;;;18.74;72.14;100865.25;5037221;27;96633;-31
2022/09/08 09:34:24;;;;;;;4.18;2.17;;;;;;;18.64;72.61;100868.00;5054692;27;97536;-29
2022/09/08 09:37:27;;;;;;;3.40;1.95;;;;;;;18.60;71.79;100872.91;5036367;27;101213;-29
2022/09/08 09:40:11;;;;;;;2.92;1.67;;;;;;;18.66;72.25;100876.94;5054669;27;96655;-29
2022/09/08 09:42:58;;;;;;;2.97;1.75;;;;;;;18.81;72.00;100867.28;5054914;27;96739;-29
2022/09/08 09:45:35;;;;;;;3.53;1.73;;;;;;;18.96;71.68;100859.44;5054772;27;98022;-30
2022/09/08 09:48:03;;;;;;;4.15;1.70;;;;;;;19.01;70.79;100872.72;5036139;27;101329;-30
2022/09/08 09:50:54;;;;;;;6.78;1.40;;;;;;;18.95;70.42;100865.94;5054741;27;96663;-29
2022/09/08 09:54:00;;;;;;;2.22;1.05;;;;;;;19.05;69.84;100866.78;5054939;27;96708;-29
2022/09/08 09:56:41;;;;;;;1.45;0.80;;;;;;;19.31;69.96;100871.63;5036238;27;101042;-30
2022/09/08 09:59:41;;;;;;;1.98;0.70;;;;;;;19.83;69.56;100869.22;5054760;27;99567;-29
2022/09/08 10:02:44;;;;;;;2.60;0.60;;;;;;;20.37;67.39;100853.59;5054580;27;96550;-30
2022/09/08 10:06:01;;;;;;;2.78;1.02;;;;;;;20.22;65.92;100857.94;5054675;27;96915;-29
2022/09/08 10:09:00;;;;;;;1.58;1.00;;;;;;;20.06;67.58;100861.38;5035105;27;101337;-29
2022/09/08 10:12:04;;;;;;;0.80;0.70;;;;;;;20.34;67.45;100861.31;5054384;27;97821;-29
2022/09/08 10:14:44;;;;;;;2.75;1.10;;;;;;;20.66;64.14;100859.88;5035794;27;96873;-29
2022/09/08 10:17:36;;;;;;;1.30;0.88;;;;;;;20.94;64.08;100855.09;5054952;27;96655;-29
2022/09/08 10:20:04;;;;;;;7.63;1.55;;;;;;;21.30;64.76;100861.34;5054078;27;98498;-29
2022/09/08 10:22:57;;;;;;;3.95;1.38;;;;;;;21.44;64.37;100862.66;5053842;27;99122;-28
2022/09/08 10:25:50;;;;;;;6.78;1.30;;;;;;;21.60;63.72;100851.69;5054392;27;96710;-29
2022/09/08 10:28:21;;;;;;;3.55;1.30;;;;;;;21.50;62.76;100853.72;5037727;27;96834;-29
2022/09/08 10:30:47;;;;;;;;;;;;;;;21.70;62.22;100867.25;5057810;27;99789;-29
2022/09/08 10:33:23;;;;;;;3.67;1.23;;;;;;;21.89;60.06;100852.31;5057361;27;99425;-30
2022/09/08 10:35:52;;;;;;;5.72;1.60;;;;;;;22.20;62.44;100855.31;5057346;27;96530;-29
2022/09/08 10:38:37;;;;;;;4.97;1.55;;;;;;;22.48;61.10;100861.41;5039315;27;96853;-29
2022/09/08 10:41:12;;;;;;;6.53;1.90;;;;;;;22.59;60.01;100857.44;5057215;27;99888;-29
2022/09/08 10:43:38;;;;;;;5.53;2.08;;;;;;;22.80;60.22;100859.66;5038953;27;100973;-28
2022/09/08 10:46:40;;;;;;;6.82;2.10;;;;;;;23.11;59.36;100851.53;5057068;27;96759;-29
2022/09/08 10:49:40;;;;;;;2.88;1.92;;;;;;;23.20;56.55;100852.38;5057334;27;96485;-29
2022/09/08 10:52:24;;;;;;;6.55;1.95;;;;;;;22.93;59.33;100860.00;5057211;27;98242;-29
2022/09/08 10:55:27;;;;;;;6.57;2.20;;;;;;;22.63;59.26;100853.28;5057428;27;98644;-30
2022/09/08 10:58:30;;;;;;;3.28;1.98;;;;;;;22.85;58.83;100849.81;5039263;27;96678;-29
2022/09/08 11:01:15;;;;;;;3.22;1.92;;;;;;;22.60;58.25;100850.88;5057451;27;96942;-29
2022/09/08 11:04:02;;;;;;;2.65;1.77;;;;;;;22.20;59.62;100858.06;5056336;27;99498;-29
2022/09/08 11:06:53;;;;;;;5.10;2.17;;;;;;;21.90;61.34;100859.53;5056589;27;110245;-30
2022/09/08 11:09:40;;;;;;;3.23;2.17;;;;;;;21.63;60.76;100864.28;5057229;27;96671;-29
2022/09/08 11:12:19;;;;;;;6.38;2.65;;;;;;;21.48;62.15;100864.06;5038664;27;96736;-29
2022/09/08 11:15:06;;;;;;;5.57;2.10;;;;;;;21.32;61.98;100867.56;5056759;27;97524;-29
2022/09/08 11:17:47;;;;;;;5.38;2.60;;;;;;;21.67;60.10;100857.41;5056726;27;99631;-30
2022/09/08 11:20:15;;;;;;;6.47;2.60;;;;;;;22.10;58.54;100860.97;5038291;27;96902;-29
2022/09/08 11:22:52;;;;;;;4.35;2.63;;;;;;;22.27;59.53;100851.72;5057196;27;96894;-29
2022/09/08 11:25:41;;;;;;;5.63;2.30;;;;;;;22.05;59.34;100863.41;5056600;27;97477;-31
2022/09/08 11:28:45;;;;;;;5.50;2.00;;;;;;;21.91;58.32;100864.91;5056390;27;97893;-30
2022/09/08 11:31:29;;;;;;;2.50;1.40;;;;;;;22.16;58.04;100865.81;5035699;27;96905;-28
2022/09/08 11:34:13;;;;;;;2.85;1.50;;;;;;;21.94;58.13;100859.03;5038371;27;97343;-29
2022/09/08 11:37:03;;;;;;;3.08;1.35;;;;;;;21.70;59.44;100858.97;5056358;27;99814;-29
2022/09/08 11:40:01;;;;;;;4.55;1.58;;;;;;;21.51;59.61;100855.44;5056248;27;97808;-29
2022/09/08 11:42:45;;;;;;;7.00;1.40;;;;;;;21.44;59.23;100859.03;5038319;27;96546;-28
2022/09/08 11:45:22;;;;;;;2.78;1.20;;;;;;;21.16;60.05;100854.53;5038409;27;96913;-31
2022/09/08 11:48:32;;;;;;;4.35;1.05;;;;;;;21.21;57.49;100854.94;5036960;27;101481;-31
2022/09/08 11:51:05;;;;;;;4.07;1.38;;;;;;;21.69;59.38;100846.19;5045795;27;97939;-29
2022/09/08 11:54:02;;;;;;;3.55;1.38;;;;;;;22.12;57.36;100844.25;5055944;27;96708;-29
2022/09/08 11:56:53;;;;;;;6.60;1.45;;;;;;;22.00;57.95;100838.19;5038081;27;96756;-29
2022/09/08 11:59:50;;;;;;;4.07;1.45;;;;;;;22.23;58.02;100841.19;5055453;27;99869;-28
2022/09/08 12:02:49;;;;;;;3.65;1.25;;;;;;;22.23;58.00;100838.44;5010243;27;98844;-28
2022/09/08 12:05:33;;;;;;;4.13;1.60;;;;;;;22.64;57.73;100827.38;5055818;27;96729;-29